sensor_id;sensor_type;location;lat;lon;timestamp;P1;durP1;ratioP1;P2;durP2;ratioP2
56267;SDS011;42175;46.930;9.532;2023-08-08T00:01:06;8.07;;;2.58;;
56267;SDS011;42175;46.930;9.532;2023-08-08T00:03:33;3.72;;;1.60;;
56267;SDS011;42175;46.930;9.532;2023-08-08T00:05:59;5.47;;;1.92;;
56267;SDS011;42175;46.930;9.532;2023-08-08T00:08:25;2.72;;;1.80;;
56267;SDS011;42175;46.930;9.532;2023-08-08T00:10:51;2.42;;;1.45;;
56267;SDS011;42175;46.930;9.532;2023-08-08T00:13:17;3.55;;;1.70;;
56267;SDS011;42175;46.930;9.532;2023-08-08T00:15:42;2.95;;;1.45;;
56267;SDS011;42175;46.930;9.532;2023-08-08T00:18:08;4.90;;;1.60;;
56267;SDS011;42175;46.930;9.532;2023-08-08T00:20:34;4.78;;;1.55;;
56267;SDS011;42175;46.930;9.532;2023-08-08T00:23:00;5.22;;;1.60;;
56267;SDS011;42175;46.930;9.532;2023-08-08T00:25:26;2.78;;;1.40;;
56267;SDS011;42175;46.930;9.532;2023-08-08T00:27:51;5.57;;;1.63;;
56267;SDS011;42175;46.930;9.532;2023-08-08T00:30:17;2.55;;;1.42;;
56267;SDS011;42175;46.930;9.532;2023-08-08T00:32:43;3.40;;;1.30;;
56267;SDS011;42175;46.930;9.532;2023-08-08T00:35:09;2.72;;;1.30;;
56267;SDS011;42175;46.930;9.532;2023-08-08T00:37:35;5.72;;;1.40;;
56267;SDS011;42175;46.930;9.532;2023-08-08T00:40:00;2.35;;;1.23;;
56267;SDS011;42175;46.930;9.532;2023-08-08T00:42:26;4.63;;;1.67;;
56267;SDS011;42175;46.930;9.532;2023-08-08T00:44:52;4.20;;;1.40;;
56267;SDS011;42175;46.930;9.532;2023-08-08T00:47:18;5.50;;;1.20;;
56267;SDS011;42175;46.930;9.532;2023-08-08T00:49:43;7.80;;;1.73;;
56267;SDS011;42175;46.930;9.532;2023-08-08T00:52:11;3.15;;;1.52;;
56267;SDS011;42175;46.930;9.532;2023-08-08T00:54:38;2.95;;;1.60;;
56267;SDS011;42175;46.930;9.532;2023-08-08T00:57:04;6.05;;;1.42;;
56267;SDS011;42175;46.930;9.532;2023-08-08T00:59:30;6.03;;;1.40;;
56267;SDS011;42175;46.930;9.532;2023-08-08T01:01:57;3.47;;;1.63;;
56267;SDS011;42175;46.930;9.532;2023-08-08T01:04:23;6.82;;;1.77;;
56267;SDS011;42175;46.930;9.532;2023-08-08T01:06:58;2.40;;;1.45;;
56267;SDS011;42175;46.930;9.532;2023-08-08T01:09:36;3.80;;;1.33;;
56267;SDS011;42175;46.930;9.532;2023-08-08T01:12:04;4.78;;;1.33;;
56267;SDS011;42175;46.930;9.532;2023-08-08T01:14:33;3.15;;;1.52;;
56267;SDS011;42175;46.930;9.532;2023-08-08T01:17:01;6.35;;;1.55;;
56267;SDS011;42175;46.930;9.532;2023-08-08T01:19:29;4.45;;;1.40;;
56267;SDS011;42175;46.930;9.532;2023-08-08T01:21:59;3.67;;;1.40;;
56267;SDS011;42175;46.930;9.532;2023-08-08T01:24:28;4.72;;;1.40;;
56267;SDS011;42175;46.930;9.532;2023-08-08T01:27:01;2.47;;;1.60;;
56267;SDS011;42175;46.930;9.532;2023-08-08T01:29:27;2.75;;;1.40;;
56267;SDS011;42175;46.930;9.532;2023-08-08T01:31:53;4.22;;;1.50;;
56267;SDS011;42175;46.930;9.532;2023-08-08T01:34:19;4.35;;;1.58;;
56267;SDS011;42175;46.930;9.532;2023-08-08T01:36:49;4.32;;;1.60;;
56267;SDS011;42175;46.930;9.532;2023-08-08T01:39:22;5.63;;;1.40;;
56267;SDS011;42175;46.930;9.532;2023-08-08T01:41:52;4.75;;;1.70;;
56267;SDS011;42175;46.930;9.532;2023-08-08T01:44:19;3.50;;;1.55;;
56267;SDS011;42175;46.930;9.532;2023-08-08T01:46:46;3.05;;;1.35;;
56267;SDS011;42175;46.930;9.532;2023-08-08T01:49:12;4.10;;;1.95;;
56267;SDS011;42175;46.930;9.532;2023-08-08T01:51:38;4.55;;;1.35;;
56267;SDS011;42175;46.930;9.532;2023-08-08T01:54:03;6.57;;;1.40;;
56267;SDS011;42175;46.930;9.532;2023-08-08T01:56:29;3.67;;;1.40;;
56267;SDS011;42175;46.930;9.532;2023-08-08T01:58:55;2.88;;;1.30;;
56267;SDS011;42175;46.930;9.532;2023-08-08T02:01:21;8.93;;;1.48;;
56267;SDS011;42175;46.930;9.532;2023-08-08T02:03:47;6.90;;;2.10;;
56267;SDS011;42175;46.930;9.532;2023-08-08T02:06:13;6.30;;;1.48;;
56267;SDS011;42175;46.930;9.532;2023-08-08T02:08:39;5.03;;;1.58;;
56267;SDS011;42175;46.930;9.532;2023-08-08T02:11:04;2.90;;;1.27;;
56267;SDS011;42175;46.930;9.532;2023-08-08T02:13:30;2.90;;;1.55;;
56267;SDS011;42175;46.930;9.532;2023-08-08T02:15:56;5.55;;;1.50;;
56267;SDS011;42175;46.930;9.532;2023-08-08T02:18:22;2.33;;;1.40;;
56267;SDS011;42175;46.930;9.532;2023-08-08T02:20:47;2.42;;;1.40;;
56267;SDS011;42175;46.930;9.532;2023-08-08T02:23:13;8.50;;;1.40;;
56267;SDS011;42175;46.930;9.532;2023-08-08T02:25:39;6.93;;;1.58;;
56267;SDS011;42175;46.930;9.532;2023-08-08T02:28:05;4.40;;;1.70;;
56267;SDS011;42175;46.930;9.532;2023-08-08T02:30:31;2.75;;;1.70;;
56267;SDS011;42175;46.930;9.532;2023-08-08T02:32:56;2.28;;;1.00;;
56267;SDS011;42175;46.930;9.532;2023-08-08T02:35:22;5.68;;;1.35;;
56267;SDS011;42175;46.930;9.532;2023-08-08T02:37:48;5.97;;;1.40;;
56267;SDS011;42175;46.930;9.532;2023-08-08T02:40:14;5.07;;;1.30;;
56267;SDS011;42175;46.930;9.532;2023-08-08T02:42:39;6.30;;;1.50;;
56267;SDS011;42175;46.930;9.532;2023-08-08T02:45:05;4.38;;;1.30;;
56267;SDS011;42175;46.930;9.532;2023-08-08T02:47:32;2.35;;;1.02;;
56267;SDS011;42175;46.930;9.532;2023-08-08T02:49:57;1.52;;;1.02;;
56267;SDS011;42175;46.930;9.532;2023-08-08T02:52:23;3.22;;;1.30;;
56267;SDS011;42175;46.930;9.532;2023-08-08T02:54:49;4.10;;;1.40;;
56267;SDS011;42175;46.930;9.532;2023-08-08T02:57:15;1.98;;;1.10;;
56267;SDS011;42175;46.930;9.532;2023-08-08T02:59:41;3.40;;;1.38;;
56267;SDS011;42175;46.930;9.532;2023-08-08T03:02:07;1.80;;;1.15;;
56267;SDS011;42175;46.930;9.532;2023-08-08T03:04:33;8.15;;;1.50;;
56267;SDS011;42175;46.930;9.532;2023-08-08T03:06:59;4.55;;;1.48;;
56267;SDS011;42175;46.930;9.532;2023-08-08T03:09:28;2.22;;;1.20;;
56267;SDS011;42175;46.930;9.532;2023-08-08T03:11:55;5.82;;;1.33;;
56267;SDS011;42175;46.930;9.532;2023-08-08T03:14:21;3.58;;;1.35;;
56267;SDS011;42175;46.930;9.532;2023-08-08T03:16:46;2.25;;;1.38;;
56267;SDS011;42175;46.930;9.532;2023-08-08T03:19:12;6.03;;;1.30;;
56267;SDS011;42175;46.930;9.532;2023-08-08T03:21:38;2.78;;;1.15;;
56267;SDS011;42175;46.930;9.532;2023-08-08T03:24:04;2.97;;;1.23;;
56267;SDS011;42175;46.930;9.532;2023-08-08T03:26:30;2.83;;;1.13;;
56267;SDS011;42175;46.930;9.532;2023-08-08T03:28:56;2.47;;;1.38;;
56267;SDS011;42175;46.930;9.532;2023-08-08T03:31:21;3.78;;;1.08;;
56267;SDS011;42175;46.930;9.532;2023-08-08T03:33:47;3.63;;;1.40;;
56267;SDS011;42175;46.930;9.532;2023-08-08T03:36:13;3.88;;;1.38;;
56267;SDS011;42175;46.930;9.532;2023-08-08T03:38:39;2.95;;;1.45;;
56267;SDS011;42175;46.930;9.532;2023-08-08T03:41:09;2.22;;;1.33;;
56267;SDS011;42175;46.930;9.532;2023-08-08T03:43:35;3.08;;;1.17;;
56267;SDS011;42175;46.930;9.532;2023-08-08T03:46:01;5.45;;;1.38;;
56267;SDS011;42175;46.930;9.532;2023-08-08T03:48:26;1.75;;;1.10;;
56267;SDS011;42175;46.930;9.532;2023-08-08T03:50:52;2.10;;;1.10;;
56267;SDS011;42175;46.930;9.532;2023-08-08T03:53:18;2.83;;;1.40;;
56267;SDS011;42175;46.930;9.532;2023-08-08T03:55:44;5.57;;;1.42;;
56267;SDS011;42175;46.930;9.532;2023-08-08T03:58:09;2.70;;;1.20;;
56267;SDS011;42175;46.930;9.532;2023-08-08T04:00:35;3.88;;;1.30;;
56267;SDS011;42175;46.930;9.532;2023-08-08T04:03:02;1.63;;;1.00;;
56267;SDS011;42175;46.930;9.532;2023-08-08T04:05:28;2.00;;;1.20;;
56267;SDS011;42175;46.930;9.532;2023-08-08T04:07:54;5.57;;;1.27;;
56267;SDS011;42175;46.930;9.532;2023-08-08T04:10:20;2.75;;;1.38;;
56267;SDS011;42175;46.930;9.532;2023-08-08T04:12:45;4.10;;;1.70;;
56267;SDS011;42175;46.930;9.532;2023-08-08T04:15:11;6.78;;;1.60;;
56267;SDS011;42175;46.930;9.532;2023-08-08T04:17:37;4.60;;;1.63;;
56267;SDS011;42175;46.930;9.532;2023-08-08T04:20:02;3.95;;;1.45;;
56267;SDS011;42175;46.930;9.532;2023-08-08T04:22:30;3.58;;;1.20;;
56267;SDS011;42175;46.930;9.532;2023-08-08T04:24:56;2.08;;;1.40;;
56267;SDS011;42175;46.930;9.532;2023-08-08T04:27:22;4.20;;;1.25;;
56267;SDS011;42175;46.930;9.532;2023-08-08T04:29:48;5.68;;;1.20;;
56267;SDS011;42175;46.930;9.532;2023-08-08T04:32:13;2.00;;;1.10;;
56267;SDS011;42175;46.930;9.532;2023-08-08T04:34:39;3.42;;;1.20;;
56267;SDS011;42175;46.930;9.532;2023-08-08T04:37:05;2.42;;;1.23;;
56267;SDS011;42175;46.930;9.532;2023-08-08T04:39:31;4.68;;;1.30;;
56267;SDS011;42175;46.930;9.532;2023-08-08T04:41:56;1.98;;;1.25;;
56267;SDS011;42175;46.930;9.532;2023-08-08T04:44:22;2.33;;;1.25;;
56267;SDS011;42175;46.930;9.532;2023-08-08T04:46:48;3.00;;;1.13;;
56267;SDS011;42175;46.930;9.532;2023-08-08T04:49:14;6.03;;;1.40;;
56267;SDS011;42175;46.930;9.532;2023-08-08T04:51:39;2.67;;;1.40;;
56267;SDS011;42175;46.930;9.532;2023-08-08T04:54:05;3.85;;;1.13;;
56267;SDS011;42175;46.930;9.532;2023-08-08T04:56:31;3.38;;;1.17;;
56267;SDS011;42175;46.930;9.532;2023-08-08T04:58:57;2.20;;;1.33;;
56267;SDS011;42175;46.930;9.532;2023-08-08T05:01:23;2.80;;;1.23;;
56267;SDS011;42175;46.930;9.532;2023-08-08T05:03:49;2.08;;;1.20;;
56267;SDS011;42175;46.930;9.532;2023-08-08T05:06:14;2.03;;;1.10;;
56267;SDS011;42175;46.930;9.532;2023-08-08T05:08:40;3.50;;;1.20;;
56267;SDS011;42175;46.930;9.532;2023-08-08T05:11:06;4.82;;;1.42;;
56267;SDS011;42175;46.930;9.532;2023-08-08T05:13:32;4.65;;;1.30;;
56267;SDS011;42175;46.930;9.532;2023-08-08T05:15:58;2.53;;;0.98;;
56267;SDS011;42175;46.930;9.532;2023-08-08T05:18:24;1.73;;;1.23;;
56267;SDS011;42175;46.930;9.532;2023-08-08T05:20:49;3.03;;;1.20;;
56267;SDS011;42175;46.930;9.532;2023-08-08T05:23:15;3.38;;;1.00;;
56267;SDS011;42175;46.930;9.532;2023-08-08T05:25:41;2.55;;;1.08;;
56267;SDS011;42175;46.930;9.532;2023-08-08T05:28:07;2.15;;;1.25;;
56267;SDS011;42175;46.930;9.532;2023-08-08T05:30:33;2.97;;;1.20;;
56267;SDS011;42175;46.930;9.532;2023-08-08T05:32:59;3.13;;;1.10;;
56267;SDS011;42175;46.930;9.532;2023-08-08T05:35:25;1.83;;;0.98;;
56267;SDS011;42175;46.930;9.532;2023-08-08T05:37:50;5.43;;;1.55;;
56267;SDS011;42175;46.930;9.532;2023-08-08T05:40:16;4.72;;;1.85;;
56267;SDS011;42175;46.930;9.532;2023-08-08T05:42:42;3.30;;;1.38;;
56267;SDS011;42175;46.930;9.532;2023-08-08T05:45:08;5.40;;;1.40;;
56267;SDS011;42175;46.930;9.532;2023-08-08T05:47:33;6.35;;;1.50;;
56267;SDS011;42175;46.930;9.532;2023-08-08T05:49:59;2.92;;;1.45;;
56267;SDS011;42175;46.930;9.532;2023-08-08T05:52:25;2.22;;;1.35;;
56267;SDS011;42175;46.930;9.532;2023-08-08T05:54:50;3.17;;;1.20;;
56267;SDS011;42175;46.930;9.532;2023-08-08T05:57:16;2.58;;;1.35;;
56267;SDS011;42175;46.930;9.532;2023-08-08T05:59:41;6.28;;;2.08;;
56267;SDS011;42175;46.930;9.532;2023-08-08T06:02:09;8.00;;;2.00;;
56267;SDS011;42175;46.930;9.532;2023-08-08T06:04:36;3.13;;;1.90;;
56267;SDS011;42175;46.930;9.532;2023-08-08T06:07:02;4.25;;;1.80;;
56267;SDS011;42175;46.930;9.532;2023-08-08T06:09:27;9.13;;;2.10;;
56267;SDS011;42175;46.930;9.532;2023-08-08T06:11:53;2.90;;;1.63;;
56267;SDS011;42175;46.930;9.532;2023-08-08T06:14:19;5.68;;;1.90;;
56267;SDS011;42175;46.930;9.532;2023-08-08T06:16:44;6.13;;;2.00;;
56267;SDS011;42175;46.930;9.532;2023-08-08T06:19:11;5.57;;;1.98;;
56267;SDS011;42175;46.930;9.532;2023-08-08T06:21:40;4.60;;;1.75;;
56267;SDS011;42175;46.930;9.532;2023-08-08T06:24:06;2.53;;;1.58;;
56267;SDS011;42175;46.930;9.532;2023-08-08T06:26:31;4.43;;;1.80;;
56267;SDS011;42175;46.930;9.532;2023-08-08T06:28:57;2.78;;;1.77;;
56267;SDS011;42175;46.930;9.532;2023-08-08T06:31:23;9.20;;;2.42;;
56267;SDS011;42175;46.930;9.532;2023-08-08T06:33:48;4.38;;;1.60;;
56267;SDS011;42175;46.930;9.532;2023-08-08T06:36:14;3.65;;;1.65;;
56267;SDS011;42175;46.930;9.532;2023-08-08T06:38:40;5.82;;;1.88;;
56267;SDS011;42175;46.930;9.532;2023-08-08T06:41:05;5.60;;;2.13;;
56267;SDS011;42175;46.930;9.532;2023-08-08T06:43:31;4.13;;;1.70;;
56267;SDS011;42175;46.930;9.532;2023-08-08T06:45:57;2.75;;;1.70;;
56267;SDS011;42175;46.930;9.532;2023-08-08T06:48:23;2.40;;;1.40;;
56267;SDS011;42175;46.930;9.532;2023-08-08T06:50:48;3.10;;;1.75;;
56267;SDS011;42175;46.930;9.532;2023-08-08T06:53:14;2.30;;;1.27;;
56267;SDS011;42175;46.930;9.532;2023-08-08T06:55:40;4.47;;;1.70;;
56267;SDS011;42175;46.930;9.532;2023-08-08T06:58:06;4.25;;;1.63;;
56267;SDS011;42175;46.930;9.532;2023-08-08T07:00:32;10.15;;;2.10;;
56267;SDS011;42175;46.930;9.532;2023-08-08T07:02:57;3.67;;;1.48;;
56267;SDS011;42175;46.930;9.532;2023-08-08T07:05:23;6.70;;;2.05;;
56267;SDS011;42175;46.930;9.532;2023-08-08T07:07:52;4.82;;;2.30;;
56267;SDS011;42175;46.930;9.532;2023-08-08T07:10:18;4.43;;;1.80;;
56267;SDS011;42175;46.930;9.532;2023-08-08T07:12:44;6.55;;;2.50;;
56267;SDS011;42175;46.930;9.532;2023-08-08T07:15:10;11.50;;;3.28;;
56267;SDS011;42175;46.930;9.532;2023-08-08T07:17:36;6.57;;;2.75;;
56267;SDS011;42175;46.930;9.532;2023-08-08T07:20:03;12.95;;;4.18;;
56267;SDS011;42175;46.930;9.532;2023-08-08T07:22:30;10.93;;;3.47;;
56267;SDS011;42175;46.930;9.532;2023-08-08T07:24:57;12.80;;;3.97;;
56267;SDS011;42175;46.930;9.532;2023-08-08T07:27:23;19.52;;;4.85;;
56267;SDS011;42175;46.930;9.532;2023-08-08T07:29:49;9.68;;;3.90;;
56267;SDS011;42175;46.930;9.532;2023-08-08T07:32:15;9.85;;;4.45;;
56267;SDS011;42175;46.930;9.532;2023-08-08T07:34:40;27.88;;;5.50;;
56267;SDS011;42175;46.930;9.532;2023-08-08T07:37:06;18.85;;;5.05;;
56267;SDS011;42175;46.930;9.532;2023-08-08T07:39:32;16.30;;;4.55;;
56267;SDS011;42175;46.930;9.532;2023-08-08T07:41:57;13.35;;;4.55;;
56267;SDS011;42175;46.930;9.532;2023-08-08T07:44:23;20.65;;;4.30;;
56267;SDS011;42175;46.930;9.532;2023-08-08T07:46:49;13.68;;;3.55;;
56267;SDS011;42175;46.930;9.532;2023-08-08T07:49:15;7.32;;;3.25;;
56267;SDS011;42175;46.930;9.532;2023-08-08T07:51:41;9.27;;;3.42;;
56267;SDS011;42175;46.930;9.532;2023-08-08T07:54:07;11.82;;;3.30;;
56267;SDS011;42175;46.930;9.532;2023-08-08T07:56:34;10.23;;;3.45;;
56267;SDS011;42175;46.930;9.532;2023-08-08T07:59:00;10.90;;;3.45;;
56267;SDS011;42175;46.930;9.532;2023-08-08T08:01:27;8.23;;;2.83;;
56267;SDS011;42175;46.930;9.532;2023-08-08T08:03:53;8.32;;;2.90;;
56267;SDS011;42175;46.930;9.532;2023-08-08T08:06:19;8.15;;;3.72;;
56267;SDS011;42175;46.930;9.532;2023-08-08T08:08:45;9.82;;;3.40;;
56267;SDS011;42175;46.930;9.532;2023-08-08T08:11:10;6.68;;;2.90;;
56267;SDS011;42175;46.930;9.532;2023-08-08T08:13:38;5.85;;;3.00;;
56267;SDS011;42175;46.930;9.532;2023-08-08T08:16:04;6.05;;;2.83;;
56267;SDS011;42175;46.930;9.532;2023-08-08T08:18:30;7.95;;;2.88;;
56267;SDS011;42175;46.930;9.532;2023-08-08T08:20:57;11.48;;;3.33;;
56267;SDS011;42175;46.930;9.532;2023-08-08T08:23:23;9.02;;;2.55;;
56267;SDS011;42175;46.930;9.532;2023-08-08T08:25:48;7.68;;;2.50;;
56267;SDS011;42175;46.930;9.532;2023-08-08T08:28:15;8.52;;;2.40;;
56267;SDS011;42175;46.930;9.532;2023-08-08T08:30:42;10.18;;;2.90;;
56267;SDS011;42175;46.930;9.532;2023-08-08T08:33:08;5.68;;;2.58;;
56267;SDS011;42175;46.930;9.532;2023-08-08T08:35:34;7.32;;;2.35;;
56267;SDS011;42175;46.930;9.532;2023-08-08T08:38:01;9.88;;;2.63;;
56267;SDS011;42175;46.930;9.532;2023-08-08T08:40:27;7.28;;;2.40;;
56267;SDS011;42175;46.930;9.532;2023-08-08T08:42:54;9.07;;;2.95;;
56267;SDS011;42175;46.930;9.532;2023-08-08T08:45:21;7.65;;;2.47;;
56267;SDS011;42175;46.930;9.532;2023-08-08T08:47:47;13.13;;;3.03;;
56267;SDS011;42175;46.930;9.532;2023-08-08T08:50:18;8.65;;;2.83;;
56267;SDS011;42175;46.930;9.532;2023-08-08T08:52:44;12.82;;;2.83;;
56267;SDS011;42175;46.930;9.532;2023-08-08T08:55:10;11.80;;;2.70;;
56267;SDS011;42175;46.930;9.532;2023-08-08T08:57:36;7.65;;;2.83;;
56267;SDS011;42175;46.930;9.532;2023-08-08T09:00:03;12.18;;;2.83;;
56267;SDS011;42175;46.930;9.532;2023-08-08T09:02:30;11.20;;;3.13;;
56267;SDS011;42175;46.930;9.532;2023-08-08T09:04:57;10.80;;;3.42;;
56267;SDS011;42175;46.930;9.532;2023-08-08T09:07:24;8.65;;;3.80;;
56267;SDS011;42175;46.930;9.532;2023-08-08T09:09:52;17.10;;;4.53;;
56267;SDS011;42175;46.930;9.532;2023-08-08T09:12:18;16.98;;;4.43;;
56267;SDS011;42175;46.930;9.532;2023-08-08T09:14:44;14.07;;;3.88;;
56267;SDS011;42175;46.930;9.532;2023-08-08T09:17:12;19.90;;;3.75;;
56267;SDS011;42175;46.930;9.532;2023-08-08T09:19:41;16.20;;;4.10;;
56267;SDS011;42175;46.930;9.532;2023-08-08T09:22:09;14.30;;;4.45;;
56267;SDS011;42175;46.930;9.532;2023-08-08T09:24:40;16.52;;;3.88;;
56267;SDS011;42175;46.930;9.532;2023-08-08T09:27:07;15.68;;;5.43;;
56267;SDS011;42175;46.930;9.532;2023-08-08T09:29:34;19.95;;;5.25;;
56267;SDS011;42175;46.930;9.532;2023-08-08T09:32:04;22.55;;;5.03;;
56267;SDS011;42175;46.930;9.532;2023-08-08T09:34:31;23.02;;;5.97;;
56267;SDS011;42175;46.930;9.532;2023-08-08T09:36:57;21.83;;;4.55;;
56267;SDS011;42175;46.930;9.532;2023-08-08T09:39:23;39.75;;;7.88;;
56267;SDS011;42175;46.930;9.532;2023-08-08T09:41:49;23.02;;;5.05;;
56267;SDS011;42175;46.930;9.532;2023-08-08T09:44:15;22.50;;;6.07;;
56267;SDS011;42175;46.930;9.532;2023-08-08T09:46:41;25.30;;;5.63;;
56267;SDS011;42175;46.930;9.532;2023-08-08T09:49:07;24.23;;;5.97;;
56267;SDS011;42175;46.930;9.532;2023-08-08T09:51:35;34.13;;;6.40;;
56267;SDS011;42175;46.930;9.532;2023-08-08T09:54:01;27.48;;;6.63;;
56267;SDS011;42175;46.930;9.532;2023-08-08T09:56:29;23.85;;;5.78;;
56267;SDS011;42175;46.930;9.532;2023-08-08T09:58:55;27.23;;;5.60;;
56267;SDS011;42175;46.930;9.532;2023-08-08T10:01:23;22.25;;;5.68;;
56267;SDS011;42175;46.930;9.532;2023-08-08T10:03:51;23.75;;;6.18;;
56267;SDS011;42175;46.930;9.532;2023-08-08T10:06:17;19.15;;;6.25;;
56267;SDS011;42175;46.930;9.532;2023-08-08T10:08:44;25.08;;;6.38;;
56267;SDS011;42175;46.930;9.532;2023-08-08T10:11:10;20.67;;;5.45;;
56267;SDS011;42175;46.930;9.532;2023-08-08T10:13:37;20.42;;;4.93;;
56267;SDS011;42175;46.930;9.532;2023-08-08T10:16:06;20.45;;;5.07;;
56267;SDS011;42175;46.930;9.532;2023-08-08T10:18:33;24.40;;;6.20;;
56267;SDS011;42175;46.930;9.532;2023-08-08T10:20:59;19.10;;;5.63;;
56267;SDS011;42175;46.930;9.532;2023-08-08T10:23:25;16.30;;;4.93;;
56267;SDS011;42175;46.930;9.532;2023-08-08T10:26:00;15.65;;;6.10;;
56267;SDS011;42175;46.930;9.532;2023-08-08T10:28:27;20.20;;;6.68;;
56267;SDS011;42175;46.930;9.532;2023-08-08T10:30:56;35.03;;;6.32;;
56267;SDS011;42175;46.930;9.532;2023-08-08T10:33:27;20.38;;;4.05;;
56267;SDS011;42175;46.930;9.532;2023-08-08T10:36:05;9.15;;;3.03;;
56267;SDS011;42175;46.930;9.532;2023-08-08T10:38:45;5.43;;;2.28;;
56267;SDS011;42175;46.930;9.532;2023-08-08T10:41:19;8.43;;;2.38;;
56267;SDS011;42175;46.930;9.532;2023-08-08T10:43:47;6.68;;;2.78;;
56267;SDS011;42175;46.930;9.532;2023-08-08T10:46:14;5.28;;;2.42;;
56267;SDS011;42175;46.930;9.532;2023-08-08T10:48:51;4.32;;;2.00;;
56267;SDS011;42175;46.930;9.532;2023-08-08T10:51:18;5.00;;;2.10;;
56267;SDS011;42175;46.930;9.532;2023-08-08T10:53:44;4.07;;;1.90;;
56267;SDS011;42175;46.930;9.532;2023-08-08T10:56:12;4.00;;;1.70;;
56267;SDS011;42175;46.930;9.532;2023-08-08T10:58:40;5.15;;;2.28;;
56267;SDS011;42175;46.930;9.532;2023-08-08T11:01:07;6.00;;;1.90;;
56267;SDS011;42175;46.930;9.532;2023-08-08T11:03:36;6.15;;;2.40;;
56267;SDS011;42175;46.930;9.532;2023-08-08T11:06:08;5.18;;;1.90;;
56267;SDS011;42175;46.930;9.532;2023-08-08T11:08:36;5.90;;;2.25;;
56267;SDS011;42175;46.930;9.532;2023-08-08T11:11:03;4.35;;;1.83;;
56267;SDS011;42175;46.930;9.532;2023-08-08T11:13:31;21.40;;;3.40;;
56267;SDS011;42175;46.930;9.532;2023-08-08T11:15:56;2.80;;;1.63;;
56267;SDS011;42175;46.930;9.532;2023-08-08T11:18:22;5.55;;;1.67;;
56267;SDS011;42175;46.930;9.532;2023-08-08T11:20:49;3.33;;;1.45;;
56267;SDS011;42175;46.930;9.532;2023-08-08T11:23:15;4.80;;;2.17;;
56267;SDS011;42175;46.930;9.532;2023-08-08T11:25:42;3.45;;;1.98;;
56267;SDS011;42175;46.930;9.532;2023-08-08T11:28:09;3.90;;;1.85;;
56267;SDS011;42175;46.930;9.532;2023-08-08T11:30:37;3.60;;;1.50;;
56267;SDS011;42175;46.930;9.532;2023-08-08T11:33:05;2.22;;;1.40;;
56267;SDS011;42175;46.930;9.532;2023-08-08T11:35:32;7.20;;;1.90;;
56267;SDS011;42175;46.930;9.532;2023-08-08T11:38:01;4.10;;;2.05;;
56267;SDS011;42175;46.930;9.532;2023-08-08T11:40:29;3.13;;;1.58;;
56267;SDS011;42175;46.930;9.532;2023-08-08T11:42:56;2.97;;;1.70;;
56267;SDS011;42175;46.930;9.532;2023-08-08T11:45:22;6.72;;;1.95;;
56267;SDS011;42175;46.930;9.532;2023-08-08T11:47:52;4.90;;;1.67;;
56267;SDS011;42175;46.930;9.532;2023-08-08T11:50:20;2.90;;;1.58;;
56267;SDS011;42175;46.930;9.532;2023-08-08T11:52:50;6.28;;;1.90;;
56267;SDS011;42175;46.930;9.532;2023-08-08T11:55:21;3.67;;;1.70;;
56267;SDS011;42175;46.930;9.532;2023-08-08T11:57:53;6.32;;;1.70;;
56267;SDS011;42175;46.930;9.532;2023-08-08T12:00:25;5.85;;;1.80;;
56267;SDS011;42175;46.930;9.532;2023-08-08T12:02:53;4.22;;;1.85;;
56267;SDS011;42175;46.930;9.532;2023-08-08T12:05:20;6.28;;;1.80;;
56267;SDS011;42175;46.930;9.532;2023-08-08T12:07:47;2.75;;;1.70;;
56267;SDS011;42175;46.930;9.532;2023-08-08T12:10:16;3.47;;;1.67;;
56267;SDS011;42175;46.930;9.532;2023-08-08T12:12:44;4.32;;;1.60;;
56267;SDS011;42175;46.930;9.532;2023-08-08T12:15:19;2.80;;;1.40;;
56267;SDS011;42175;46.930;9.532;2023-08-08T12:17:45;3.10;;;1.98;;
56267;SDS011;42175;46.930;9.532;2023-08-08T12:20:11;6.13;;;1.70;;
56267;SDS011;42175;46.930;9.532;2023-08-08T12:22:37;3.15;;;1.63;;
56267;SDS011;42175;46.930;9.532;2023-08-08T12:25:03;4.97;;;1.77;;
56267;SDS011;42175;46.930;9.532;2023-08-08T12:27:29;2.60;;;1.80;;
56267;SDS011;42175;46.930;9.532;2023-08-08T12:29:55;3.25;;;1.60;;
56267;SDS011;42175;46.930;9.532;2023-08-08T12:32:21;2.33;;;1.30;;
56267;SDS011;42175;46.930;9.532;2023-08-08T12:34:48;2.10;;;1.35;;
56267;SDS011;42175;46.930;9.532;2023-08-08T12:37:15;3.80;;;1.77;;
56267;SDS011;42175;46.930;9.532;2023-08-08T12:39:40;2.78;;;1.63;;
56267;SDS011;42175;46.930;9.532;2023-08-08T12:42:06;2.72;;;1.70;;
56267;SDS011;42175;46.930;9.532;2023-08-08T12:44:32;4.93;;;2.20;;
56267;SDS011;42175;46.930;9.532;2023-08-08T12:46:58;3.53;;;1.70;;
56267;SDS011;42175;46.930;9.532;2023-08-08T12:49:23;2.55;;;1.42;;
56267;SDS011;42175;46.930;9.532;2023-08-08T12:51:50;2.90;;;1.60;;
56267;SDS011;42175;46.930;9.532;2023-08-08T12:54:16;3.17;;;1.67;;
56267;SDS011;42175;46.930;9.532;2023-08-08T12:56:42;4.13;;;2.08;;
56267;SDS011;42175;46.930;9.532;2023-08-08T12:59:08;3.20;;;1.80;;
56267;SDS011;42175;46.930;9.532;2023-08-08T13:01:34;4.82;;;2.03;;
56267;SDS011;42175;46.930;9.532;2023-08-08T13:04:00;6.20;;;1.80;;
56267;SDS011;42175;46.930;9.532;2023-08-08T13:06:26;4.95;;;1.55;;
56267;SDS011;42175;46.930;9.532;2023-08-08T13:08:52;5.20;;;1.48;;
56267;SDS011;42175;46.930;9.532;2023-08-08T13:11:17;4.18;;;2.00;;
56267;SDS011;42175;46.930;9.532;2023-08-08T13:13:43;6.13;;;3.42;;
56267;SDS011;42175;46.930;9.532;2023-08-08T13:16:09;7.07;;;2.20;;
56267;SDS011;42175;46.930;9.532;2023-08-08T13:18:35;5.80;;;2.08;;
56267;SDS011;42175;46.930;9.532;2023-08-08T13:21:01;4.40;;;2.30;;
56267;SDS011;42175;46.930;9.532;2023-08-08T13:23:27;3.47;;;2.08;;
56267;SDS011;42175;46.930;9.532;2023-08-08T13:25:53;6.03;;;2.28;;
56267;SDS011;42175;46.930;9.532;2023-08-08T13:28:19;3.60;;;2.05;;
56267;SDS011;42175;46.930;9.532;2023-08-08T13:30:45;4.05;;;2.05;;
56267;SDS011;42175;46.930;9.532;2023-08-08T13:33:11;3.50;;;1.60;;
56267;SDS011;42175;46.930;9.532;2023-08-08T13:35:37;3.50;;;1.73;;
56267;SDS011;42175;46.930;9.532;2023-08-08T13:38:02;3.45;;;2.03;;
56267;SDS011;42175;46.930;9.532;2023-08-08T13:40:28;4.32;;;2.25;;
56267;SDS011;42175;46.930;9.532;2023-08-08T13:42:54;4.78;;;1.73;;
56267;SDS011;42175;46.930;9.532;2023-08-08T13:45:19;3.75;;;2.47;;
56267;SDS011;42175;46.930;9.532;2023-08-08T13:47:47;3.13;;;1.45;;
56267;SDS011;42175;46.930;9.532;2023-08-08T13:50:13;4.20;;;1.73;;
56267;SDS011;42175;46.930;9.532;2023-08-08T13:52:39;3.47;;;1.73;;
56267;SDS011;42175;46.930;9.532;2023-08-08T13:55:06;3.17;;;1.80;;
56267;SDS011;42175;46.930;9.532;2023-08-08T13:57:33;3.60;;;1.55;;
56267;SDS011;42175;46.930;9.532;2023-08-08T14:00:00;5.53;;;2.20;;
56267;SDS011;42175;46.930;9.532;2023-08-08T14:02:26;2.90;;;1.90;;
56267;SDS011;42175;46.930;9.532;2023-08-08T14:04:51;5.70;;;2.15;;
56267;SDS011;42175;46.930;9.532;2023-08-08T14:07:18;3.47;;;1.67;;
56267;SDS011;42175;46.930;9.532;2023-08-08T14:09:43;3.08;;;2.00;;
56267;SDS011;42175;46.930;9.532;2023-08-08T14:12:09;6.30;;;4.18;;
56267;SDS011;42175;46.930;9.532;2023-08-08T14:14:35;12.10;;;6.68;;
56267;SDS011;42175;46.930;9.532;2023-08-08T14:17:01;6.55;;;4.00;;
56267;SDS011;42175;46.930;9.532;2023-08-08T14:19:26;3.63;;;2.67;;
56267;SDS011;42175;46.930;9.532;2023-08-08T14:21:52;8.02;;;5.18;;
56267;SDS011;42175;46.930;9.532;2023-08-08T14:24:18;8.45;;;3.63;;
56267;SDS011;42175;46.930;9.532;2023-08-08T14:26:44;4.32;;;2.55;;
56267;SDS011;42175;46.930;9.532;2023-08-08T14:29:10;17.75;;;2.63;;
56267;SDS011;42175;46.930;9.532;2023-08-08T14:31:36;8.27;;;2.30;;
56267;SDS011;42175;46.930;9.532;2023-08-08T14:34:02;5.82;;;2.25;;
56267;SDS011;42175;46.930;9.532;2023-08-08T14:36:28;4.72;;;1.98;;
56267;SDS011;42175;46.930;9.532;2023-08-08T14:38:54;13.38;;;2.13;;
56267;SDS011;42175;46.930;9.532;2023-08-08T14:41:20;5.93;;;2.13;;